Time Latitude Longitude Accuracy (66% radius in meters) Altitude (meters) Speed (km/hour) Bearing (degrees) Battery (%) GPS flag
06:56:18 57.203958 60.118185 0 0 0 0 1 delete
06:56:17 57.203960 60.118183 0 0 0 0 1 delete
06:56:16 57.203960 60.118182 0 0 0 0 1 delete
06:56:15 57.203960 60.118180 0 0 0 0 1 delete
06:56:14 57.203962 60.118178 0 0 0 0 1 delete
06:56:13 57.203962 60.118175 0 0 0 0 1 delete
06:56:12 57.203963 60.118173 0 0 0 0 1 delete
06:56:11 57.203963 60.118170 0 0 0 0 1 delete
06:56:10 57.203965 60.118168 0 0 0 0 1 delete
06:56:09 57.203965 60.118165 0 0 0 0 1 delete
06:56:08 57.203967 60.118162 0 0 0 0 1 delete
06:56:07 57.203967 60.118157 0 0 0 0 1 delete
06:56:06 57.203968 60.118153 0 0 0 0 1 delete
06:56:05 57.203970 60.118148 0 0 0 0 1 delete
06:56:04 57.203970 60.118142 0 0 0 0 1 delete
06:56:03 57.203972 60.118137 0 0 0 0 1 delete
06:56:02 57.203973 60.118132 0 0 0 0 1 delete
06:56:01 57.203973 60.118125 0 0 0 0 1 delete
06:56:00 57.203975 60.118113 0 0 0 0 1 delete
06:55:59 57.203977 60.118102 0 0 0 0 1 delete
06:55:58 57.203977 60.118083 0 0 0 0 1 delete
06:55:57 57.203980 60.118067 0 0 0 0 1 delete
06:55:56 57.203985 60.118045 0 0 0 0 1 delete
06:55:55 57.203988 60.118033 0 0 0 0 1 delete
06:55:54 57.204007 60.118000 0 0 0 0 1 delete
06:55:53 57.204030 60.117948 0 0 0 0 1 delete
06:55:52 57.204057 60.117895 0 0 0 0 1 delete
06:55:51 57.204080 60.117860 0 0 0 0 1 delete
06:55:50 57.204108 60.117825 0 0 0 0 1 delete
06:55:49 57.204140 60.117785 0 0 0 0 1 delete
06:55:48 57.204167 60.117747 0 0 0 0 1 delete
06:55:47 57.204195 60.117703 0 0 0 0 1 delete
06:55:46 57.204227 60.117658 0 0 0 0 1 delete
06:55:45 57.204257 60.117610 0 0 0 0 1 delete
06:55:44 57.204283 60.117562 0 0 0 0 1 delete
06:55:43 57.204313 60.117510 0 0 0 0 1 delete
06:55:42 57.204347 60.117467 0 0 0 0 1 delete
06:55:41 57.204383 60.117423 0 0 0 0 1 delete
06:55:40 57.204423 60.117392 0 0 0 0 1 delete
06:55:39 57.204462 60.117360 0 0 0 0 1 delete
06:55:38 57.204508 60.117340 0 0 0 0 1 delete
06:55:37 57.204558 60.117327 0 0 0 0 1 delete
06:55:36 57.204607 60.117317 0 0 0 0 1 delete
06:55:35 57.204650 60.117320 0 0 0 0 1 delete
06:55:34 57.204695 60.117327 0 0 0 0 1 delete
06:55:33 57.204742 60.117332 0 0 0 0 1 delete
06:55:32 57.204785 60.117342 0 0 0 0 1 delete
06:55:31 57.204822 60.117355 0 0 0 0 1 delete
06:55:30 57.204862 60.117360 0 0 0 0 1 delete
06:55:29 57.204903 60.117373 0 0 0 0 1 delete